sensor_id;sensor_type;location;lat;lon;timestamp;P1;durP1;ratioP1;P2;durP2;ratioP2
42602;SDS011;28233;55.748;48.752;2023-07-31T00:00:48;5.22;;;4.10;;
42602;SDS011;28233;55.748;48.752;2023-07-31T00:02:52;4.55;;;3.05;;
42602;SDS011;28233;55.748;48.752;2023-07-31T00:04:56;9.02;;;3.13;;
42602;SDS011;28233;55.748;48.752;2023-07-31T00:06:59;6.80;;;3.63;;
42602;SDS011;28233;55.748;48.752;2023-07-31T00:09:02;5.63;;;4.13;;
42602;SDS011;28233;55.748;48.752;2023-07-31T00:11:04;5.18;;;3.58;;
42602;SDS011;28233;55.748;48.752;2023-07-31T00:13:07;7.40;;;3.67;;
42602;SDS011;28233;55.748;48.752;2023-07-31T00:15:10;5.82;;;3.90;;
42602;SDS011;28233;55.748;48.752;2023-07-31T00:17:12;5.53;;;4.32;;
42602;SDS011;28233;55.748;48.752;2023-07-31T00:19:15;7.10;;;4.90;;
42602;SDS011;28233;55.748;48.752;2023-07-31T00:21:18;8.35;;;5.20;;
42602;SDS011;28233;55.748;48.752;2023-07-31T00:23:21;9.88;;;5.03;;
42602;SDS011;28233;55.748;48.752;2023-07-31T00:25:23;9.52;;;6.38;;
42602;SDS011;28233;55.748;48.752;2023-07-31T00:27:26;7.80;;;5.47;;
42602;SDS011;28233;55.748;48.752;2023-07-31T00:29:29;8.38;;;5.35;;
42602;SDS011;28233;55.748;48.752;2023-07-31T00:31:31;12.40;;;5.10;;
42602;SDS011;28233;55.748;48.752;2023-07-31T00:33:34;6.03;;;4.30;;
42602;SDS011;28233;55.748;48.752;2023-07-31T00:35:38;5.68;;;4.03;;
42602;SDS011;28233;55.748;48.752;2023-07-31T00:37:41;6.63;;;4.15;;
42602;SDS011;28233;55.748;48.752;2023-07-31T00:39:44;4.03;;;3.03;;
42602;SDS011;28233;55.748;48.752;2023-07-31T00:41:46;6.43;;;3.05;;
42602;SDS011;28233;55.748;48.752;2023-07-31T00:43:49;5.18;;;3.15;;
42602;SDS011;28233;55.748;48.752;2023-07-31T00:45:52;4.50;;;2.35;;
42602;SDS011;28233;55.748;48.752;2023-07-31T00:47:54;4.88;;;2.95;;
42602;SDS011;28233;55.748;48.752;2023-07-31T00:49:57;2.92;;;2.10;;
42602;SDS011;28233;55.748;48.752;2023-07-31T00:52:00;4.93;;;2.65;;
42602;SDS011;28233;55.748;48.752;2023-07-31T00:54:04;2.90;;;2.22;;
42602;SDS011;28233;55.748;48.752;2023-07-31T00:56:08;3.55;;;2.55;;
42602;SDS011;28233;55.748;48.752;2023-07-31T00:58:12;4.15;;;2.70;;
42602;SDS011;28233;55.748;48.752;2023-07-31T01:00:14;5.43;;;3.00;;
42602;SDS011;28233;55.748;48.752;2023-07-31T01:02:18;5.90;;;2.50;;
42602;SDS011;28233;55.748;48.752;2023-07-31T01:04:21;2.83;;;2.40;;
42602;SDS011;28233;55.748;48.752;2023-07-31T01:10:46;4.63;;;2.80;;
42602;SDS011;28233;55.748;48.752;2023-07-31T01:12:53;3.83;;;2.60;;
42602;SDS011;28233;55.748;48.752;2023-07-31T01:15:03;3.70;;;2.35;;
42602;SDS011;28233;55.748;48.752;2023-07-31T01:17:08;2.90;;;1.85;;
42602;SDS011;28233;55.748;48.752;2023-07-31T01:19:11;2.78;;;1.88;;
42602;SDS011;28233;55.748;48.752;2023-07-31T01:21:22;3.72;;;1.85;;
42602;SDS011;28233;55.748;48.752;2023-07-31T01:28:13;1.95;;;1.35;;
42602;SDS011;28233;55.748;48.752;2023-07-31T01:30:22;4.53;;;2.03;;
42602;SDS011;28233;55.748;48.752;2023-07-31T01:32:30;2.33;;;1.70;;
42602;SDS011;28233;55.748;48.752;2023-07-31T01:34:33;4.72;;;1.60;;
42602;SDS011;28233;55.748;48.752;2023-07-31T01:36:38;2.20;;;1.70;;
42602;SDS011;28233;55.748;48.752;2023-07-31T01:38:41;2.92;;;1.70;;
42602;SDS011;28233;55.748;48.752;2023-07-31T01:40:44;1.50;;;1.15;;
42602;SDS011;28233;55.748;48.752;2023-07-31T01:42:46;2.53;;;1.33;;
42602;SDS011;28233;55.748;48.752;2023-07-31T01:44:49;2.38;;;1.73;;
42602;SDS011;28233;55.748;48.752;2023-07-31T01:46:51;2.00;;;1.52;;
42602;SDS011;28233;55.748;48.752;2023-07-31T01:48:54;2.90;;;1.40;;
42602;SDS011;28233;55.748;48.752;2023-07-31T01:51:00;2.28;;;1.60;;
42602;SDS011;28233;55.748;48.752;2023-07-31T01:53:02;2.38;;;1.75;;
42602;SDS011;28233;55.748;48.752;2023-07-31T01:55:05;2.28;;;1.30;;
42602;SDS011;28233;55.748;48.752;2023-07-31T01:57:08;1.95;;;1.40;;
42602;SDS011;28233;55.748;48.752;2023-07-31T01:59:10;2.88;;;1.48;;
42602;SDS011;28233;55.748;48.752;2023-07-31T02:01:13;3.85;;;1.00;;
42602;SDS011;28233;55.748;48.752;2023-07-31T02:03:16;3.45;;;1.40;;
42602;SDS011;28233;55.748;48.752;2023-07-31T02:05:19;2.92;;;0.98;;
42602;SDS011;28233;55.748;48.752;2023-07-31T02:07:21;2.83;;;1.35;;
42602;SDS011;28233;55.748;48.752;2023-07-31T02:09:24;1.85;;;1.45;;
42602;SDS011;28233;55.748;48.752;2023-07-31T02:11:26;1.75;;;0.93;;
42602;SDS011;28233;55.748;48.752;2023-07-31T02:13:29;2.33;;;1.30;;
42602;SDS011;28233;55.748;48.752;2023-07-31T02:15:32;1.67;;;1.30;;
42602;SDS011;28233;55.748;48.752;2023-07-31T02:17:35;4.28;;;1.23;;
42602;SDS011;28233;55.748;48.752;2023-07-31T02:19:37;2.88;;;0.77;;
42602;SDS011;28233;55.748;48.752;2023-07-31T02:21:40;2.25;;;1.20;;
42602;SDS011;28233;55.748;48.752;2023-07-31T02:23:43;6.85;;;1.50;;
42602;SDS011;28233;55.748;48.752;2023-07-31T02:25:45;3.15;;;1.02;;
42602;SDS011;28233;55.748;48.752;2023-07-31T02:27:49;5.60;;;1.00;;
42602;SDS011;28233;55.748;48.752;2023-07-31T02:29:51;3.50;;;1.15;;
42602;SDS011;28233;55.748;48.752;2023-07-31T02:31:54;3.22;;;1.02;;
42602;SDS011;28233;55.748;48.752;2023-07-31T02:33:57;3.95;;;1.02;;
42602;SDS011;28233;55.748;48.752;2023-07-31T02:35:59;2.83;;;0.95;;
42602;SDS011;28233;55.748;48.752;2023-07-31T02:38:02;2.28;;;1.00;;
42602;SDS011;28233;55.748;48.752;2023-07-31T02:40:05;1.20;;;0.55;;
42602;SDS011;28233;55.748;48.752;2023-07-31T02:42:07;3.17;;;0.98;;
42602;SDS011;28233;55.748;48.752;2023-07-31T02:44:10;2.40;;;1.20;;
42602;SDS011;28233;55.748;48.752;2023-07-31T02:46:15;2.80;;;0.88;;
42602;SDS011;28233;55.748;48.752;2023-07-31T02:48:18;1.60;;;1.08;;
42602;SDS011;28233;55.748;48.752;2023-07-31T02:50:21;1.42;;;0.95;;
42602;SDS011;28233;55.748;48.752;2023-07-31T02:52:24;1.95;;;1.45;;
42602;SDS011;28233;55.748;48.752;2023-07-31T02:54:26;4.00;;;1.27;;
42602;SDS011;28233;55.748;48.752;2023-07-31T02:56:29;1.95;;;1.17;;
42602;SDS011;28233;55.748;48.752;2023-07-31T02:58:32;6.18;;;1.83;;
42602;SDS011;28233;55.748;48.752;2023-07-31T03:00:35;3.97;;;0.85;;
42602;SDS011;28233;55.748;48.752;2023-07-31T03:02:37;3.17;;;0.93;;
42602;SDS011;28233;55.748;48.752;2023-07-31T03:04:40;5.65;;;1.40;;
42602;SDS011;28233;55.748;48.752;2023-07-31T03:06:43;2.45;;;1.08;;
42602;SDS011;28233;55.748;48.752;2023-07-31T03:08:45;3.47;;;1.40;;
42602;SDS011;28233;55.748;48.752;2023-07-31T03:10:48;6.40;;;1.30;;
42602;SDS011;28233;55.748;48.752;2023-07-31T03:12:51;2.55;;;1.10;;
42602;SDS011;28233;55.748;48.752;2023-07-31T03:14:53;4.80;;;1.70;;
42602;SDS011;28233;55.748;48.752;2023-07-31T03:16:56;6.47;;;1.17;;
42602;SDS011;28233;55.748;48.752;2023-07-31T03:18:58;2.08;;;1.00;;
42602;SDS011;28233;55.748;48.752;2023-07-31T03:21:01;5.57;;;1.10;;
42602;SDS011;28233;55.748;48.752;2023-07-31T03:23:04;4.65;;;1.13;;
42602;SDS011;28233;55.748;48.752;2023-07-31T03:25:07;6.63;;;1.05;;
42602;SDS011;28233;55.748;48.752;2023-07-31T03:27:11;1.98;;;1.00;;
42602;SDS011;28233;55.748;48.752;2023-07-31T03:29:14;1.92;;;0.80;;
42602;SDS011;28233;55.748;48.752;2023-07-31T03:31:16;1.40;;;0.80;;
42602;SDS011;28233;55.748;48.752;2023-07-31T03:33:19;1.98;;;0.63;;
42602;SDS011;28233;55.748;48.752;2023-07-31T03:35:22;3.53;;;1.27;;
42602;SDS011;28233;55.748;48.752;2023-07-31T03:37:24;3.63;;;0.95;;
42602;SDS011;28233;55.748;48.752;2023-07-31T03:39:27;2.92;;;0.73;;
42602;SDS011;28233;55.748;48.752;2023-07-31T03:41:30;2.17;;;0.65;;
42602;SDS011;28233;55.748;48.752;2023-07-31T03:43:32;1.17;;;0.50;;
42602;SDS011;28233;55.748;48.752;2023-07-31T03:45:37;0.63;;;0.38;;
42602;SDS011;28233;55.748;48.752;2023-07-31T03:47:40;1.70;;;0.60;;
42602;SDS011;28233;55.748;48.752;2023-07-31T03:49:43;0.98;;;0.43;;
42602;SDS011;28233;55.748;48.752;2023-07-31T03:51:46;1.20;;;0.47;;
42602;SDS011;28233;55.748;48.752;2023-07-31T03:53:48;1.38;;;0.55;;
42602;SDS011;28233;55.748;48.752;2023-07-31T03:55:51;0.57;;;0.40;;
42602;SDS011;28233;55.748;48.752;2023-07-31T03:57:54;0.70;;;0.43;;
42602;SDS011;28233;55.748;48.752;2023-07-31T03:59:56;0.60;;;0.32;;
42602;SDS011;28233;55.748;48.752;2023-07-31T04:02:00;2.95;;;0.63;;
42602;SDS011;28233;55.748;48.752;2023-07-31T04:04:02;1.13;;;0.30;;
42602;SDS011;28233;55.748;48.752;2023-07-31T04:06:05;1.38;;;0.60;;
42602;SDS011;28233;55.748;48.752;2023-07-31T04:08:09;0.63;;;0.30;;
42602;SDS011;28233;55.748;48.752;2023-07-31T04:10:12;1.52;;;0.30;;
42602;SDS011;28233;55.748;48.752;2023-07-31T04:12:15;0.40;;;0.20;;
42602;SDS011;28233;55.748;48.752;2023-07-31T04:14:17;3.75;;;0.88;;
42602;SDS011;28233;55.748;48.752;2023-07-31T04:16:20;2.47;;;0.50;;
42602;SDS011;28233;55.748;48.752;2023-07-31T04:18:24;0.88;;;0.52;;
42602;SDS011;28233;55.748;48.752;2023-07-31T04:20:27;2.30;;;0.60;;
42602;SDS011;28233;55.748;48.752;2023-07-31T04:22:30;1.00;;;0.40;;
42602;SDS011;28233;55.748;48.752;2023-07-31T04:24:33;2.45;;;0.60;;
42602;SDS011;28233;55.748;48.752;2023-07-31T04:26:35;1.40;;;0.75;;
42602;SDS011;28233;55.748;48.752;2023-07-31T04:28:38;5.93;;;0.60;;
42602;SDS011;28233;55.748;48.752;2023-07-31T04:30:41;2.95;;;0.38;;
42602;SDS011;28233;55.748;48.752;2023-07-31T04:32:44;2.50;;;0.38;;
42602;SDS011;28233;55.748;48.752;2023-07-31T04:34:46;0.50;;;0.30;;
42602;SDS011;28233;55.748;48.752;2023-07-31T04:36:49;1.52;;;0.40;;
42602;SDS011;28233;55.748;48.752;2023-07-31T04:38:52;1.10;;;0.55;;
42602;SDS011;28233;55.748;48.752;2023-07-31T04:40:54;2.60;;;0.45;;
42602;SDS011;28233;55.748;48.752;2023-07-31T04:42:57;0.80;;;0.70;;
42602;SDS011;28233;55.748;48.752;2023-07-31T04:45:00;1.40;;;0.45;;
42602;SDS011;28233;55.748;48.752;2023-07-31T04:47:05;2.42;;;0.70;;
42602;SDS011;28233;55.748;48.752;2023-07-31T04:49:08;0.82;;;0.25;;
42602;SDS011;28233;55.748;48.752;2023-07-31T04:51:11;1.00;;;0.40;;
42602;SDS011;28233;55.748;48.752;2023-07-31T04:53:14;1.58;;;0.40;;
42602;SDS011;28233;55.748;48.752;2023-07-31T04:55:16;2.22;;;0.50;;
42602;SDS011;28233;55.748;48.752;2023-07-31T04:57:20;1.42;;;0.45;;
42602;SDS011;28233;55.748;48.752;2023-07-31T04:59:23;3.40;;;0.35;;
42602;SDS011;28233;55.748;48.752;2023-07-31T05:01:25;1.65;;;0.30;;
42602;SDS011;28233;55.748;48.752;2023-07-31T05:03:28;1.15;;;0.43;;
42602;SDS011;28233;55.748;48.752;2023-07-31T05:05:31;1.25;;;0.50;;
42602;SDS011;28233;55.748;48.752;2023-07-31T05:07:34;0.22;;;0.15;;
42602;SDS011;28233;55.748;48.752;2023-07-31T05:09:36;2.58;;;0.45;;
42602;SDS011;28233;55.748;48.752;2023-07-31T05:11:41;1.10;;;0.32;;
42602;SDS011;28233;55.748;48.752;2023-07-31T05:13:45;1.55;;;0.40;;
42602;SDS011;28233;55.748;48.752;2023-07-31T05:15:47;0.52;;;0.30;;
42602;SDS011;28233;55.748;48.752;2023-07-31T05:17:51;1.55;;;0.43;;
42602;SDS011;28233;55.748;48.752;2023-07-31T05:19:54;4.43;;;0.30;;
42602;SDS011;28233;55.748;48.752;2023-07-31T05:21:57;0.65;;;0.32;;
42602;SDS011;28233;55.748;48.752;2023-07-31T05:24:00;0.50;;;0.38;;
42602;SDS011;28233;55.748;48.752;2023-07-31T05:26:05;0.95;;;0.50;;
42602;SDS011;28233;55.748;48.752;2023-07-31T05:28:09;1.17;;;0.40;;
42602;SDS011;28233;55.748;48.752;2023-07-31T05:30:11;3.95;;;0.70;;
42602;SDS011;28233;55.748;48.752;2023-07-31T05:32:14;1.35;;;0.47;;
42602;SDS011;28233;55.748;48.752;2023-07-31T05:34:17;1.63;;;0.40;;
42602;SDS011;28233;55.748;48.752;2023-07-31T05:36:19;1.85;;;0.30;;
42602;SDS011;28233;55.748;48.752;2023-07-31T05:38:22;1.77;;;0.50;;
42602;SDS011;28233;55.748;48.752;2023-07-31T05:40:25;0.50;;;0.30;;
42602;SDS011;28233;55.748;48.752;2023-07-31T05:42:29;2.35;;;0.47;;
42602;SDS011;28233;55.748;48.752;2023-07-31T05:44:32;2.40;;;0.30;;
42602;SDS011;28233;55.748;48.752;2023-07-31T05:46:35;2.08;;;0.47;;
42602;SDS011;28233;55.748;48.752;2023-07-31T05:48:38;2.75;;;0.20;;
42602;SDS011;28233;55.748;48.752;2023-07-31T05:50:40;2.15;;;0.60;;
42602;SDS011;28233;55.748;48.752;2023-07-31T05:52:43;0.63;;;0.32;;
42602;SDS011;28233;55.748;48.752;2023-07-31T05:54:46;1.33;;;0.17;;
42602;SDS011;28233;55.748;48.752;2023-07-31T05:56:49;0.80;;;0.20;;
42602;SDS011;28233;55.748;48.752;2023-07-31T05:58:52;0.73;;;0.28;;
42602;SDS011;28233;55.748;48.752;2023-07-31T06:00:54;0.63;;;0.30;;
42602;SDS011;28233;55.748;48.752;2023-07-31T06:02:57;0.80;;;0.32;;
42602;SDS011;28233;55.748;48.752;2023-07-31T06:05:00;2.05;;;0.38;;
42602;SDS011;28233;55.748;48.752;2023-07-31T06:07:05;0.90;;;0.28;;
42602;SDS011;28233;55.748;48.752;2023-07-31T06:09:07;0.82;;;0.82;;
42602;SDS011;28233;55.748;48.752;2023-07-31T06:11:10;2.30;;;0.50;;
42602;SDS011;28233;55.748;48.752;2023-07-31T06:13:13;0.55;;;0.17;;
42602;SDS011;28233;55.748;48.752;2023-07-31T06:15:15;1.80;;;0.82;;
42602;SDS011;28233;55.748;48.752;2023-07-31T06:17:20;0.38;;;0.10;;
42602;SDS011;28233;55.748;48.752;2023-07-31T06:19:23;3.28;;;0.40;;
42602;SDS011;28233;55.748;48.752;2023-07-31T06:21:26;1.30;;;0.45;;
42602;SDS011;28233;55.748;48.752;2023-07-31T06:23:29;1.13;;;0.38;;
42602;SDS011;28233;55.748;48.752;2023-07-31T06:25:31;0.85;;;0.20;;
42602;SDS011;28233;55.748;48.752;2023-07-31T06:27:34;0.50;;;0.20;;
42602;SDS011;28233;55.748;48.752;2023-07-31T06:29:37;2.08;;;0.30;;
42602;SDS011;28233;55.748;48.752;2023-07-31T06:31:40;2.45;;;0.77;;
42602;SDS011;28233;55.748;48.752;2023-07-31T06:33:43;1.27;;;0.43;;
42602;SDS011;28233;55.748;48.752;2023-07-31T06:35:46;0.80;;;0.50;;
42602;SDS011;28233;55.748;48.752;2023-07-31T06:37:48;0.47;;;0.20;;
42602;SDS011;28233;55.748;48.752;2023-07-31T06:39:52;1.17;;;0.55;;
42602;SDS011;28233;55.748;48.752;2023-07-31T06:41:55;0.50;;;0.20;;
42602;SDS011;28233;55.748;48.752;2023-07-31T06:43:57;1.75;;;0.22;;
42602;SDS011;28233;55.748;48.752;2023-07-31T06:46:06;1.55;;;0.20;;
42602;SDS011;28233;55.748;48.752;2023-07-31T06:48:09;0.88;;;0.32;;
42602;SDS011;28233;55.748;48.752;2023-07-31T06:50:13;0.45;;;0.30;;
42602;SDS011;28233;55.748;48.752;2023-07-31T06:52:16;1.65;;;0.40;;
42602;SDS011;28233;55.748;48.752;2023-07-31T06:54:19;2.38;;;0.30;;
42602;SDS011;28233;55.748;48.752;2023-07-31T06:56:21;1.08;;;0.55;;
42602;SDS011;28233;55.748;48.752;2023-07-31T06:58:24;5.90;;;0.40;;
42602;SDS011;28233;55.748;48.752;2023-07-31T07:00:27;0.98;;;0.30;;
42602;SDS011;28233;55.748;48.752;2023-07-31T07:02:30;1.00;;;0.40;;
42602;SDS011;28233;55.748;48.752;2023-07-31T07:04:33;0.52;;;0.32;;
42602;SDS011;28233;55.748;48.752;2023-07-31T07:06:36;0.52;;;0.13;;
42602;SDS011;28233;55.748;48.752;2023-07-31T07:08:39;2.45;;;0.25;;
42602;SDS011;28233;55.748;48.752;2023-07-31T07:10:42;1.48;;;0.20;;
42602;SDS011;28233;55.748;48.752;2023-07-31T07:12:45;2.88;;;0.47;;
42602;SDS011;28233;55.748;48.752;2023-07-31T07:14:48;1.85;;;0.47;;
42602;SDS011;28233;55.748;48.752;2023-07-31T07:16:51;1.80;;;0.17;;
42602;SDS011;28233;55.748;48.752;2023-07-31T07:18:54;0.63;;;0.28;;
42602;SDS011;28233;55.748;48.752;2023-07-31T07:21:06;0.20;;;0.20;;
42602;SDS011;28233;55.748;48.752;2023-07-31T07:23:08;1.17;;;0.15;;
42602;SDS011;28233;55.748;48.752;2023-07-31T07:25:13;0.22;;;0.10;;
42602;SDS011;28233;55.748;48.752;2023-07-31T07:27:16;1.67;;;0.20;;
42602;SDS011;28233;55.748;48.752;2023-07-31T07:29:18;1.50;;;0.28;;
42602;SDS011;28233;55.748;48.752;2023-07-31T07:31:21;0.88;;;0.20;;
42602;SDS011;28233;55.748;48.752;2023-07-31T07:33:24;0.60;;;0.20;;
42602;SDS011;28233;55.748;48.752;2023-07-31T07:35:27;0.63;;;0.10;;
42602;SDS011;28233;55.748;48.752;2023-07-31T07:37:29;0.70;;;0.30;;
42602;SDS011;28233;55.748;48.752;2023-07-31T07:39:34;1.38;;;0.20;;
42602;SDS011;28233;55.748;48.752;2023-07-31T07:41:37;1.50;;;0.30;;
42602;SDS011;28233;55.748;48.752;2023-07-31T07:43:40;2.83;;;0.35;;
42602;SDS011;28233;55.748;48.752;2023-07-31T07:45:43;2.80;;;0.20;;
42602;SDS011;28233;55.748;48.752;2023-07-31T07:47:45;0.57;;;0.20;;
42602;SDS011;28233;55.748;48.752;2023-07-31T07:49:48;0.57;;;0.30;;
42602;SDS011;28233;55.748;48.752;2023-07-31T07:51:54;2.67;;;0.20;;
42602;SDS011;28233;55.748;48.752;2023-07-31T07:53:57;0.35;;;0.10;;
42602;SDS011;28233;55.748;48.752;2023-07-31T07:56:00;0.50;;;0.10;;
42602;SDS011;28233;55.748;48.752;2023-07-31T07:58:03;0.20;;;0.20;;
42602;SDS011;28233;55.748;48.752;2023-07-31T08:00:06;0.10;;;0.10;;
42602;SDS011;28233;55.748;48.752;2023-07-31T08:02:09;3.58;;;0.45;;
42602;SDS011;28233;55.748;48.752;2023-07-31T08:04:11;0.88;;;0.15;;
42602;SDS011;28233;55.748;48.752;2023-07-31T08:06:14;0.20;;;0.10;;
42602;SDS011;28233;55.748;48.752;2023-07-31T08:08:17;0.63;;;0.17;;
42602;SDS011;28233;55.748;48.752;2023-07-31T08:10:19;2.92;;;0.63;;
42602;SDS011;28233;55.748;48.752;2023-07-31T08:12:22;0.32;;;0.20;;
42602;SDS011;28233;55.748;48.752;2023-07-31T08:14:24;0.77;;;0.10;;
42602;SDS011;28233;55.748;48.752;2023-07-31T08:16:27;0.80;;;0.30;;
42602;SDS011;28233;55.748;48.752;2023-07-31T08:18:33;2.03;;;0.10;;
42602;SDS011;28233;55.748;48.752;2023-07-31T08:20:35;0.17;;;0.10;;
42602;SDS011;28233;55.748;48.752;2023-07-31T08:22:38;0.60;;;0.45;;
42602;SDS011;28233;55.748;48.752;2023-07-31T08:24:41;4.68;;;0.20;;
42602;SDS011;28233;55.748;48.752;2023-07-31T08:26:43;2.72;;;0.45;;
42602;SDS011;28233;55.748;48.752;2023-07-31T08:28:46;1.00;;;0.30;;
42602;SDS011;28233;55.748;48.752;2023-07-31T08:30:49;2.25;;;0.20;;
42602;SDS011;28233;55.748;48.752;2023-07-31T08:32:52;1.75;;;0.75;;
42602;SDS011;28233;55.748;48.752;2023-07-31T08:34:55;0.45;;;0.22;;
42602;SDS011;28233;55.748;48.752;2023-07-31T08:36:58;4.78;;;0.20;;
42602;SDS011;28233;55.748;48.752;2023-07-31T08:39:01;2.17;;;0.40;;
42602;SDS011;28233;55.748;48.752;2023-07-31T08:41:03;0.43;;;0.10;;
42602;SDS011;28233;55.748;48.752;2023-07-31T08:43:07;0.63;;;0.30;;
42602;SDS011;28233;55.748;48.752;2023-07-31T08:45:14;0.50;;;0.20;;
42602;SDS011;28233;55.748;48.752;2023-07-31T08:47:19;2.30;;;0.20;;
42602;SDS011;28233;55.748;48.752;2023-07-31T08:49:22;1.90;;;0.15;;
42602;SDS011;28233;55.748;48.752;2023-07-31T08:51:26;1.17;;;0.25;;
42602;SDS011;28233;55.748;48.752;2023-07-31T08:53:28;0.52;;;0.20;;
42602;SDS011;28233;55.748;48.752;2023-07-31T08:55:32;1.35;;;0.10;;
42602;SDS011;28233;55.748;48.752;2023-07-31T08:57:35;0.73;;;0.40;;
42602;SDS011;28233;55.748;48.752;2023-07-31T08:59:39;0.70;;;0.10;;
42602;SDS011;28233;55.748;48.752;2023-07-31T09:01:46;1.65;;;0.22;;
42602;SDS011;28233;55.748;48.752;2023-07-31T09:03:52;1.17;;;0.20;;
42602;SDS011;28233;55.748;48.752;2023-07-31T09:05:56;0.30;;;0.15;;
42602;SDS011;28233;55.748;48.752;2023-07-31T09:08:02;1.08;;;0.35;;
42602;SDS011;28233;55.748;48.752;2023-07-31T09:10:07;2.10;;;0.22;;
42602;SDS011;28233;55.748;48.752;2023-07-31T09:12:10;0.20;;;0.10;;
42602;SDS011;28233;55.748;48.752;2023-07-31T09:14:13;0.65;;;0.20;;
42602;SDS011;28233;55.748;48.752;2023-07-31T09:16:18;0.10;;;0.10;;
42602;SDS011;28233;55.748;48.752;2023-07-31T09:18:21;0.85;;;0.40;;
42602;SDS011;28233;55.748;48.752;2023-07-31T09:20:24;1.10;;;0.43;;
42602;SDS011;28233;55.748;48.752;2023-07-31T09:22:34;1.13;;;0.40;;
42602;SDS011;28233;55.748;48.752;2023-07-31T09:24:38;0.40;;;0.20;;
42602;SDS011;28233;55.748;48.752;2023-07-31T09:26:40;0.52;;;0.10;;
42602;SDS011;28233;55.748;48.752;2023-07-31T09:28:43;1.70;;;0.20;;
42602;SDS011;28233;55.748;48.752;2023-07-31T09:30:47;2.28;;;0.00;;
42602;SDS011;28233;55.748;48.752;2023-07-31T09:32:52;0.20;;;0.20;;
42602;SDS011;28233;55.748;48.752;2023-07-31T09:37:23;2.55;;;0.10;;
42602;SDS011;28233;55.748;48.752;2023-07-31T09:39:25;0.22;;;0.10;;
42602;SDS011;28233;55.748;48.752;2023-07-31T09:41:28;0.70;;;0.20;;
42602;SDS011;28233;55.748;48.752;2023-07-31T09:43:32;1.40;;;0.00;;
42602;SDS011;28233;55.748;48.752;2023-07-31T09:45:36;0.20;;;0.20;;
42602;SDS011;28233;55.748;48.752;2023-07-31T09:47:47;0.20;;;0.15;;
42602;SDS011;28233;55.748;48.752;2023-07-31T09:49:53;0.10;;;0.10;;
42602;SDS011;28233;55.748;48.752;2023-07-31T09:51:56;0.30;;;0.10;;
42602;SDS011;28233;55.748;48.752;2023-07-31T09:54:00;0.32;;;0.10;;
42602;SDS011;28233;55.748;48.752;2023-07-31T09:56:03;0.15;;;0.10;;
42602;SDS011;28233;55.748;48.752;2023-07-31T09:58:08;0.17;;;0.10;;
42602;SDS011;28233;55.748;48.752;2023-07-31T10:00:13;0.30;;;0.10;;
42602;SDS011;28233;55.748;48.752;2023-07-31T10:02:21;0.43;;;0.10;;
42602;SDS011;28233;55.748;48.752;2023-07-31T10:04:26;1.10;;;0.10;;
42602;SDS011;28233;55.748;48.752;2023-07-31T10:06:30;0.22;;;0.10;;
42602;SDS011;28233;55.748;48.752;2023-07-31T10:08:35;0.13;;;0.10;;
42602;SDS011;28233;55.748;48.752;2023-07-31T10:10:42;2.53;;;0.17;;
42602;SDS011;28233;55.748;48.752;2023-07-31T10:12:46;0.88;;;0.38;;
42602;SDS011;28233;55.748;48.752;2023-07-31T10:14:51;0.00;;;0.00;;
42602;SDS011;28233;55.748;48.752;2023-07-31T10:16:57;1.48;;;0.10;;
42602;SDS011;28233;55.748;48.752;2023-07-31T10:19:01;0.10;;;0.00;;
42602;SDS011;28233;55.748;48.752;2023-07-31T10:21:04;0.43;;;0.20;;
42602;SDS011;28233;55.748;48.752;2023-07-31T10:23:08;1.75;;;0.00;;
42602;SDS011;28233;55.748;48.752;2023-07-31T10:25:11;1.23;;;0.10;;
42602;SDS011;28233;55.748;48.752;2023-07-31T10:27:14;0.20;;;0.10;;
42602;SDS011;28233;55.748;48.752;2023-07-31T10:29:17;0.98;;;0.00;;
42602;SDS011;28233;55.748;48.752;2023-07-31T10:31:21;0.20;;;0.10;;
42602;SDS011;28233;55.748;48.752;2023-07-31T10:33:25;0.20;;;0.10;;
42602;SDS011;28233;55.748;48.752;2023-07-31T10:35:28;0.25;;;0.10;;
42602;SDS011;28233;55.748;48.752;2023-07-31T10:39:41;1.50;;;0.22;;
42602;SDS011;28233;55.748;48.752;2023-07-31T10:41:43;0.13;;;0.00;;
42602;SDS011;28233;55.748;48.752;2023-07-31T10:43:49;0.20;;;0.10;;
42602;SDS011;28233;55.748;48.752;2023-07-31T10:45:59;0.20;;;0.10;;
42602;SDS011;28233;55.748;48.752;2023-07-31T10:50:20;0.55;;;0.00;;
42602;SDS011;28233;55.748;48.752;2023-07-31T10:52:26;0.38;;;0.17;;
42602;SDS011;28233;55.748;48.752;2023-07-31T10:54:38;4.40;;;0.10;;
42602;SDS011;28233;55.748;48.752;2023-07-31T10:56:44;0.00;;;0.00;;
42602;SDS011;28233;55.748;48.752;2023-07-31T10:58:48;0.55;;;0.10;;
42602;SDS011;28233;55.748;48.752;2023-07-31T11:01:06;0.35;;;0.17;;
42602;SDS011;28233;55.748;48.752;2023-07-31T11:03:09;1.13;;;0.22;;
42602;SDS011;28233;55.748;48.752;2023-07-31T11:05:16;0.20;;;0.10;;
42602;SDS011;28233;55.748;48.752;2023-07-31T11:07:19;0.80;;;0.10;;
42602;SDS011;28233;55.748;48.752;2023-07-31T11:09:22;4.32;;;0.20;;
42602;SDS011;28233;55.748;48.752;2023-07-31T11:11:24;0.93;;;0.20;;
42602;SDS011;28233;55.748;48.752;2023-07-31T11:13:34;1.40;;;0.47;;
42602;SDS011;28233;55.748;48.752;2023-07-31T11:15:43;0.52;;;0.20;;
42602;SDS011;28233;55.748;48.752;2023-07-31T11:17:45;1.73;;;0.20;;
42602;SDS011;28233;55.748;48.752;2023-07-31T11:19:50;5.47;;;0.35;;
42602;SDS011;28233;55.748;48.752;2023-07-31T11:21:52;0.15;;;0.10;;
42602;SDS011;28233;55.748;48.752;2023-07-31T11:23:56;2.45;;;0.40;;
42602;SDS011;28233;55.748;48.752;2023-07-31T11:26:04;0.63;;;0.10;;
42602;SDS011;28233;55.748;48.752;2023-07-31T11:28:14;1.20;;;0.10;;
42602;SDS011;28233;55.748;48.752;2023-07-31T11:30:18;0.43;;;0.10;;
42602;SDS011;28233;55.748;48.752;2023-07-31T11:32:22;1.70;;;0.10;;
42602;SDS011;28233;55.748;48.752;2023-07-31T11:34:25;0.88;;;0.20;;
42602;SDS011;28233;55.748;48.752;2023-07-31T11:36:28;0.50;;;0.17;;
42602;SDS011;28233;55.748;48.752;2023-07-31T11:38:31;1.25;;;0.17;;
42602;SDS011;28233;55.748;48.752;2023-07-31T11:40:41;0.20;;;0.10;;
42602;SDS011;28233;55.748;48.752;2023-07-31T11:42:45;4.85;;;0.20;;
42602;SDS011;28233;55.748;48.752;2023-07-31T11:44:47;2.95;;;0.25;;
42602;SDS011;28233;55.748;48.752;2023-07-31T11:46:50;0.95;;;0.30;;
42602;SDS011;28233;55.748;48.752;2023-07-31T11:48:55;2.90;;;0.20;;
42602;SDS011;28233;55.748;48.752;2023-07-31T11:51:06;1.83;;;0.32;;
42602;SDS011;28233;55.748;48.752;2023-07-31T11:53:13;3.72;;;0.30;;
42602;SDS011;28233;55.748;48.752;2023-07-31T11:55:16;0.55;;;0.08;;
42602;SDS011;28233;55.748;48.752;2023-07-31T11:57:20;1.60;;;0.10;;
42602;SDS011;28233;55.748;48.752;2023-07-31T11:59:24;2.75;;;0.30;;
42602;SDS011;28233;55.748;48.752;2023-07-31T12:01:27;3.38;;;0.52;;
42602;SDS011;28233;55.748;48.752;2023-07-31T12:03:31;15.80;;;1.10;;
42602;SDS011;28233;55.748;48.752;2023-07-31T12:05:35;1.00;;;0.47;;
42602;SDS011;28233;55.748;48.752;2023-07-31T12:07:49;1.27;;;0.28;;
42602;SDS011;28233;55.748;48.752;2023-07-31T12:09:53;1.17;;;0.20;;
42602;SDS011;28233;55.748;48.752;2023-07-31T12:11:57;0.00;;;0.00;;
42602;SDS011;28233;55.748;48.752;2023-07-31T12:14:00;0.52;;;0.20;;
42602;SDS011;28233;55.748;48.752;2023-07-31T12:16:03;1.23;;;0.10;;
42602;SDS011;28233;55.748;48.752;2023-07-31T12:18:07;0.50;;;0.10;;
42602;SDS011;28233;55.748;48.752;2023-07-31T12:20:21;1.85;;;0.10;;
42602;SDS011;28233;55.748;48.752;2023-07-31T12:22:24;1.85;;;0.17;;
42602;SDS011;28233;55.748;48.752;2023-07-31T12:24:28;0.50;;;0.00;;
42602;SDS011;28233;55.748;48.752;2023-07-31T12:26:34;0.47;;;0.10;;
42602;SDS011;28233;55.748;48.752;2023-07-31T12:28:38;0.20;;;0.10;;